Terminal Aerodrome Forecast
Issued by NWS Billings, MT

Home | Current Version | Previous Version | Text Only | Print | Product List | Glossary Off
Versions: 1 2 3 4 5 6 7 8 9 10 11 12 13 14 15 16 17 18 19 20 21 22 23 24 25 26 27 28 29 30 31 32 33 34 35

000
FTUS45 KBYZ 262320
TAFMLS
TAF
KMLS 262320Z 2700/2724 15006KT P6SM VCSH SCT070 OVC100
     FM270700 26007KT P6SM BKN090
     FM271000 26007KT P6SM BKN120 WS009/32031KT
     FM271500 26012G22KT P6SM FEW080 BKN120
     FM272200 32012G20KT P6SM FEW120=

USA.gov is the U.S. government's official web portal to all federal, state and local government web resources and services.